$GPRMC,000000.000,V,5205.168,N,01638.736,E,0.00,0.00,010070,,*11 $GPGGA,000000.000,5205.168,N,01638.736,E,0,00,0.0,0.000,M,0.0,M,,*6E $GPRMC,000000.000,V,5205.198,N,01638.771,E,0.00,0.00,010070,,*1D $GPGGA,000000.000,5205.198,N,01638.771,E,0,00,0.0,0.000,M,0.0,M,,*62 $GPRMC,000000.000,V,5205.209,N,01638.772,E,0.00,0.00,010070,,*15 $GPGGA,000000.000,5205.209,N,01638.772,E,0,00,0.0,0.000,M,0.0,M,,*6A $GPRMC,000000.000,V,5205.216,N,01638.764,E,0.00,0.00,010070,,*1C $GPGGA,000000.000,5205.216,N,01638.764,E,0,00,0.0,0.000,M,0.0,M,,*63 $GPRMC,000000.000,V,5205.247,N,01638.799,E,0.00,0.00,010070,,*1A $GPGGA,000000.000,5205.247,N,01638.799,E,0,00,0.0,0.000,M,0.0,M,,*65 $GPRMC,000000.000,V,5205.236,N,01638.823,E,0.00,0.00,010070,,*12 $GPGGA,000000.000,5205.236,N,01638.823,E,0,00,0.0,0.000,M,0.0,M,,*6D $GPRMC,000000.000,V,5205.204,N,01638.875,E,0.00,0.00,010070,,*10 $GPGGA,000000.000,5205.204,N,01638.875,E,0,00,0.0,0.000,M,0.0,M,,*6F $GPRMC,000000.000,V,5205.178,N,01638.899,E,0.00,0.00,010070,,*1A $GPGGA,000000.000,5205.178,N,01638.899,E,0,00,0.0,0.000,M,0.0,M,,*65 $GPRMC,000000.000,V,5205.139,N,01638.935,E,0.00,0.00,010070,,*18 $GPGGA,000000.000,5205.139,N,01638.935,E,0,00,0.0,0.000,M,0.0,M,,*67 $GPRMC,000000.000,V,5205.114,N,01638.956,E,0.00,0.00,010070,,*12 $GPGGA,000000.000,5205.114,N,01638.956,E,0,00,0.0,0.000,M,0.0,M,,*6D $GPRMC,000000.000,V,5205.093,N,01638.969,E,0.00,0.00,010070,,*10 $GPGGA,000000.000,5205.093,N,01638.969,E,0,00,0.0,0.000,M,0.0,M,,*6F $GPRMC,000000.000,V,5205.069,N,01639.000,E,0.00,0.00,010070,,*12 $GPGGA,000000.000,5205.069,N,01639.000,E,0,00,0.0,0.000,M,0.0,M,,*6D $GPRMC,000000.000,V,5205.038,N,01639.065,E,0.00,0.00,010070,,*15 $GPGGA,000000.000,5205.038,N,01639.065,E,0,00,0.0,0.000,M,0.0,M,,*6A $GPRMC,000000.000,V,5205.002,N,01639.125,E,0.00,0.00,010070,,*19 $GPGGA,000000.000,5205.002,N,01639.125,E,0,00,0.0,0.000,M,0.0,M,,*66 $GPRMC,000000.000,V,5204.969,N,01639.159,E,0.00,0.00,010070,,*17 $GPGGA,000000.000,5204.969,N,01639.159,E,0,00,0.0,0.000,M,0.0,M,,*68 $GPRMC,000000.000,V,5204.937,N,01639.193,E,0.00,0.00,010070,,*1A $GPGGA,000000.000,5204.937,N,01639.193,E,0,00,0.0,0.000,M,0.0,M,,*65 $GPRMC,000000.000,V,5204.902,N,01639.226,E,0.00,0.00,010070,,*11 $GPGGA,000000.000,5204.902,N,01639.226,E,0,00,0.0,0.000,M,0.0,M,,*6E $GPRMC,000000.000,V,5204.871,N,01639.262,E,0.00,0.00,010070,,*14 $GPGGA,000000.000,5204.871,N,01639.262,E,0,00,0.0,0.000,M,0.0,M,,*6B $GPRMC,000000.000,V,5204.913,N,01639.345,E,0.00,0.00,010070,,*15 $GPGGA,000000.000,5204.913,N,01639.345,E,0,00,0.0,0.000,M,0.0,M,,*6A $GPRMC,000000.000,V,5204.922,N,01639.361,E,0.00,0.00,010070,,*11 $GPGGA,000000.000,5204.922,N,01639.361,E,0,00,0.0,0.000,M,0.0,M,,*6E $GPRMC,000000.000,V,5204.895,N,01639.399,E,0.00,0.00,010070,,*1B $GPGGA,000000.000,5204.895,N,01639.399,E,0,00,0.0,0.000,M,0.0,M,,*64 $GPRMC,000000.000,V,5204.881,N,01639.428,E,0.00,0.00,010070,,*13 $GPGGA,000000.000,5204.881,N,01639.428,E,0,00,0.0,0.000,M,0.0,M,,*6C $GPRMC,000000.000,V,5204.854,N,01639.481,E,0.00,0.00,010070,,*18 $GPGGA,000000.000,5204.854,N,01639.481,E,0,00,0.0,0.000,M,0.0,M,,*67 $GPRMC,000000.000,V,5204.855,N,01639.498,E,0.00,0.00,010070,,*11 $GPGGA,000000.000,5204.855,N,01639.498,E,0,00,0.0,0.000,M,0.0,M,,*6E $GPRMC,000000.000,V,5204.861,N,01639.530,E,0.00,0.00,010070,,*15 $GPGGA,000000.000,5204.861,N,01639.530,E,0,00,0.0,0.000,M,0.0,M,,*6A $GPRMC,000000.000,V,5204.873,N,01639.566,E,0.00,0.00,010070,,*15 $GPGGA,000000.000,5204.873,N,01639.566,E,0,00,0.0,0.000,M,0.0,M,,*6A $GPRMC,000000.000,V,5204.880,N,01639.594,E,0.00,0.00,010070,,*14 $GPGGA,000000.000,5204.880,N,01639.594,E,0,00,0.0,0.000,M,0.0,M,,*6B $GPRMC,000000.000,V,5204.652,N,01639.732,E,0.00,0.00,010070,,*1B $GPGGA,000000.000,5204.652,N,01639.732,E,0,00,0.0,0.000,M,0.0,M,,*64 $GPRMC,000000.000,V,5204.387,N,01639.791,E,0.00,0.00,010070,,*1F $GPGGA,000000.000,5204.387,N,01639.791,E,0,00,0.0,0.000,M,0.0,M,,*60 $GPRMC,000000.000,V,5204.195,N,01639.837,E,0.00,0.00,010070,,*1D $GPGGA,000000.000,5204.195,N,01639.837,E,0,00,0.0,0.000,M,0.0,M,,*62 $GPRMC,000000.000,V,5204.280,N,01640.133,E,0.00,0.00,010070,,*19 $GPGGA,000000.000,5204.280,N,01640.133,E,0,00,0.0,0.000,M,0.0,M,,*66 $GPRMC,000000.000,V,5204.209,N,01640.237,E,0.00,0.00,010070,,*1F $GPGGA,000000.000,5204.209,N,01640.237,E,0,00,0.0,0.000,M,0.0,M,,*60 $GPRMC,000000.000,V,5204.171,N,01640.273,E,0.00,0.00,010070,,*13 $GPGGA,000000.000,5204.171,N,01640.273,E,0,00,0.0,0.000,M,0.0,M,,*6C $GPRMC,000000.000,V,5204.129,N,01640.317,E,0.00,0.00,010070,,*1D $GPGGA,000000.000,5204.129,N,01640.317,E,0,00,0.0,0.000,M,0.0,M,,*62 $GPRMC,000000.000,V,5204.080,N,01640.353,E,0.00,0.00,010070,,*1F $GPGGA,000000.000,5204.080,N,01640.353,E,0,00,0.0,0.000,M,0.0,M,,*60 $GPRMC,000000.000,V,5204.051,N,01640.361,E,0.00,0.00,010070,,*12 $GPGGA,000000.000,5204.051,N,01640.361,E,0,00,0.0,0.000,M,0.0,M,,*6D $GPRMC,000000.000,V,5203.966,N,01640.409,E,0.00,0.00,010070,,*11 $GPGGA,000000.000,5203.966,N,01640.409,E,0,00,0.0,0.000,M,0.0,M,,*6E $GPRMC,000000.000,V,5203.876,N,01640.448,E,0.00,0.00,010070,,*14 $GPGGA,000000.000,5203.876,N,01640.448,E,0,00,0.0,0.000,M,0.0,M,,*6B $GPRMC,000000.000,V,5203.836,N,01640.465,E,0.00,0.00,010070,,*1F $GPGGA,000000.000,5203.836,N,01640.465,E,0,00,0.0,0.000,M,0.0,M,,*60 $GPRMC,000000.000,V,5203.773,N,01640.474,E,0.00,0.00,010070,,*11 $GPGGA,000000.000,5203.773,N,01640.474,E,0,00,0.0,0.000,M,0.0,M,,*6E $GPRMC,000000.000,V,5203.734,N,01640.473,E,0.00,0.00,010070,,*15 $GPGGA,000000.000,5203.734,N,01640.473,E,0,00,0.0,0.000,M,0.0,M,,*6A $GPRMC,000000.000,V,5203.686,N,01640.480,E,0.00,0.00,010070,,*11 $GPGGA,000000.000,5203.686,N,01640.480,E,0,00,0.0,0.000,M,0.0,M,,*6E $GPRMC,000000.000,V,5203.642,N,01640.488,E,0.00,0.00,010070,,*11 $GPGGA,000000.000,5203.642,N,01640.488,E,0,00,0.0,0.000,M,0.0,M,,*6E $GPRMC,000000.000,V,5203.624,N,01640.493,E,0.00,0.00,010070,,*1B $GPGGA,000000.000,5203.624,N,01640.493,E,0,00,0.0,0.000,M,0.0,M,,*64 $GPRMC,000000.000,V,5203.641,N,01640.622,E,0.00,0.00,010070,,*10 $GPGGA,000000.000,5203.641,N,01640.622,E,0,00,0.0,0.000,M,0.0,M,,*6F $GPRMC,000000.000,V,5203.653,N,01640.642,E,0.00,0.00,010070,,*15 $GPGGA,000000.000,5203.653,N,01640.642,E,0,00,0.0,0.000,M,0.0,M,,*6A $GPRMC,000000.000,V,5203.662,N,01640.664,E,0.00,0.00,010070,,*13 $GPGGA,000000.000,5203.662,N,01640.664,E,0,00,0.0,0.000,M,0.0,M,,*6C $GPRMC,000000.000,V,5203.673,N,01640.736,E,0.00,0.00,010070,,*15 $GPGGA,000000.000,5203.673,N,01640.736,E,0,00,0.0,0.000,M,0.0,M,,*6A $GPRMC,000000.000,V,5203.689,N,01640.829,E,0.00,0.00,010070,,*11 $GPGGA,000000.000,5203.689,N,01640.829,E,0,00,0.0,0.000,M,0.0,M,,*6E $GPRMC,000000.000,V,5203.701,N,01640.903,E,0.00,0.00,010070,,*19 $GPGGA,000000.000,5203.701,N,01640.903,E,0,00,0.0,0.000,M,0.0,M,,*66 $GPRMC,000000.000,V,5203.722,N,01640.988,E,0.00,0.00,010070,,*1B $GPGGA,000000.000,5203.722,N,01640.988,E,0,00,0.0,0.000,M,0.0,M,,*64 $GPRMC,000000.000,V,5203.737,N,01641.071,E,0.00,0.00,010070,,*11 $GPGGA,000000.000,5203.737,N,01641.071,E,0,00,0.0,0.000,M,0.0,M,,*6E $GPRMC,000000.000,V,5203.740,N,01641.152,E,0.00,0.00,010070,,*11 $GPGGA,000000.000,5203.740,N,01641.152,E,0,00,0.0,0.000,M,0.0,M,,*6E $GPRMC,000000.000,V,5203.752,N,01641.210,E,0.00,0.00,010070,,*17 $GPGGA,000000.000,5203.752,N,01641.210,E,0,00,0.0,0.000,M,0.0,M,,*68 $GPRMC,000000.000,V,5203.780,N,01641.290,E,0.00,0.00,010070,,*10 $GPGGA,000000.000,5203.780,N,01641.290,E,0,00,0.0,0.000,M,0.0,M,,*6F $GPRMC,000000.000,V,5203.801,N,01641.349,E,0.00,0.00,010070,,*13 $GPGGA,000000.000,5203.801,N,01641.349,E,0,00,0.0,0.000,M,0.0,M,,*6C $GPRMC,000000.000,V,5203.821,N,01641.402,E,0.00,0.00,010070,,*19 $GPGGA,000000.000,5203.821,N,01641.402,E,0,00,0.0,0.000,M,0.0,M,,*66 $GPRMC,000000.000,V,5203.837,N,01641.468,E,0.00,0.00,010070,,*12 $GPGGA,000000.000,5203.837,N,01641.468,E,0,00,0.0,0.000,M,0.0,M,,*6D $GPRMC,000000.000,V,5203.843,N,01641.478,E,0.00,0.00,010070,,*10 $GPGGA,000000.000,5203.843,N,01641.478,E,0,00,0.0,0.000,M,0.0,M,,*6F $GPRMC,000000.000,V,5203.753,N,01641.683,E,0.00,0.00,010070,,*18 $GPGGA,000000.000,5203.753,N,01641.683,E,0,00,0.0,0.000,M,0.0,M,,*67 $GPRMC,000000.000,V,5203.667,N,01641.890,E,0.00,0.00,010070,,*12 $GPGGA,000000.000,5203.667,N,01641.890,E,0,00,0.0,0.000,M,0.0,M,,*6D $GPRMC,000000.000,V,5203.591,N,01642.075,E,0.00,0.00,010070,,*18 $GPGGA,000000.000,5203.591,N,01642.075,E,0,00,0.0,0.000,M,0.0,M,,*67 $GPRMC,000000.000,V,5203.534,N,01642.214,E,0.00,0.00,010070,,*12 $GPGGA,000000.000,5203.534,N,01642.214,E,0,00,0.0,0.000,M,0.0,M,,*6D $GPRMC,000000.000,V,5203.507,N,01642.269,E,0.00,0.00,010070,,*18 $GPGGA,000000.000,5203.507,N,01642.269,E,0,00,0.0,0.000,M,0.0,M,,*67 $GPRMC,000000.000,V,5203.492,N,01642.333,E,0.00,0.00,010070,,*1B $GPGGA,000000.000,5203.492,N,01642.333,E,0,00,0.0,0.000,M,0.0,M,,*64 $GPRMC,000000.000,V,5203.459,N,01642.453,E,0.00,0.00,010070,,*1D $GPGGA,000000.000,5203.459,N,01642.453,E,0,00,0.0,0.000,M,0.0,M,,*62 $GPRMC,000000.000,V,5203.438,N,01642.512,E,0.00,0.00,010070,,*1E $GPGGA,000000.000,5203.438,N,01642.512,E,0,00,0.0,0.000,M,0.0,M,,*61 $GPRMC,000000.000,V,5203.395,N,01642.498,E,0.00,0.00,010070,,*1D $GPGGA,000000.000,5203.395,N,01642.498,E,0,00,0.0,0.000,M,0.0,M,,*62 $GPRMC,000000.000,V,5203.362,N,01642.495,E,0.00,0.00,010070,,*18 $GPGGA,000000.000,5203.362,N,01642.495,E,0,00,0.0,0.000,M,0.0,M,,*67 $GPRMC,000000.000,V,5203.297,N,01642.509,E,0.00,0.00,010070,,*17 $GPGGA,000000.000,5203.297,N,01642.509,E,0,00,0.0,0.000,M,0.0,M,,*68 $GPRMC,000000.000,V,5203.204,N,01642.517,E,0.00,0.00,010070,,*12 $GPGGA,000000.000,5203.204,N,01642.517,E,0,00,0.0,0.000,M,0.0,M,,*6D $GPRMC,000000.000,V,5203.109,N,01642.521,E,0.00,0.00,010070,,*19 $GPGGA,000000.000,5203.109,N,01642.521,E,0,00,0.0,0.000,M,0.0,M,,*66 $GPRMC,000000.000,V,5202.978,N,01642.527,E,0.00,0.00,010070,,*10 $GPGGA,000000.000,5202.978,N,01642.527,E,0,00,0.0,0.000,M,0.0,M,,*6F $GPRMC,000000.000,V,5202.898,N,01642.532,E,0.00,0.00,010070,,*1B $GPGGA,000000.000,5202.898,N,01642.532,E,0,00,0.0,0.000,M,0.0,M,,*64 $GPRMC,000000.000,V,5202.856,N,01642.522,E,0.00,0.00,010070,,*18 $GPGGA,000000.000,5202.856,N,01642.522,E,0,00,0.0,0.000,M,0.0,M,,*67 $GPRMC,000000.000,V,5202.798,N,01642.504,E,0.00,0.00,010070,,*11 $GPGGA,000000.000,5202.798,N,01642.504,E,0,00,0.0,0.000,M,0.0,M,,*6E $GPRMC,000000.000,V,5202.761,N,01642.493,E,0.00,0.00,010070,,*18 $GPGGA,000000.000,5202.761,N,01642.493,E,0,00,0.0,0.000,M,0.0,M,,*67 $GPRMC,000000.000,V,5202.717,N,01642.484,E,0.00,0.00,010070,,*1F $GPGGA,000000.000,5202.717,N,01642.484,E,0,00,0.0,0.000,M,0.0,M,,*60 $GPRMC,000000.000,V,5202.693,N,01642.480,E,0.00,0.00,010070,,*16 $GPGGA,000000.000,5202.693,N,01642.480,E,0,00,0.0,0.000,M,0.0,M,,*69 $GPRMC,000000.000,V,5202.656,N,01642.480,E,0.00,0.00,010070,,*1F $GPGGA,000000.000,5202.656,N,01642.480,E,0,00,0.0,0.000,M,0.0,M,,*60 $GPRMC,000000.000,V,5202.613,N,01642.509,E,0.00,0.00,010070,,*1E $GPGGA,000000.000,5202.613,N,01642.509,E,0,00,0.0,0.000,M,0.0,M,,*61 $GPRMC,000000.000,V,5202.550,N,01642.562,E,0.00,0.00,010070,,*17 $GPGGA,000000.000,5202.550,N,01642.562,E,0,00,0.0,0.000,M,0.0,M,,*68 $GPRMC,000000.000,V,5202.423,N,01642.670,E,0.00,0.00,010070,,*12 $GPGGA,000000.000,5202.423,N,01642.670,E,0,00,0.0,0.000,M,0.0,M,,*6D $GPRMC,000000.000,V,5202.316,N,01642.762,E,0.00,0.00,010070,,*11 $GPGGA,000000.000,5202.316,N,01642.762,E,0,00,0.0,0.000,M,0.0,M,,*6E $GPRMC,000000.000,V,5202.194,N,01642.869,E,0.00,0.00,010070,,*1D $GPGGA,000000.000,5202.194,N,01642.869,E,0,00,0.0,0.000,M,0.0,M,,*62 $GPRMC,000000.000,V,5202.167,N,01642.884,E,0.00,0.00,010070,,*12 $GPGGA,000000.000,5202.167,N,01642.884,E,0,00,0.0,0.000,M,0.0,M,,*6D $GPRMC,000000.000,V,5202.156,N,01642.878,E,0.00,0.00,010070,,*13 $GPGGA,000000.000,5202.156,N,01642.878,E,0,00,0.0,0.000,M,0.0,M,,*6C $GPRMC,000000.000,V,5202.057,N,01642.709,E,0.00,0.00,010070,,*1A $GPGGA,000000.000,5202.057,N,01642.709,E,0,00,0.0,0.000,M,0.0,M,,*65 $GPRMC,000000.000,V,5201.964,N,01642.587,E,0.00,0.00,010070,,*14 $GPGGA,000000.000,5201.964,N,01642.587,E,0,00,0.0,0.000,M,0.0,M,,*6B $GPRMC,000000.000,V,5201.923,N,01642.556,E,0.00,0.00,010070,,*1B $GPGGA,000000.000,5201.923,N,01642.556,E,0,00,0.0,0.000,M,0.0,M,,*64 $GPRMC,000000.000,V,5201.881,N,01642.525,E,0.00,0.00,010070,,*16 $GPGGA,000000.000,5201.881,N,01642.525,E,0,00,0.0,0.000,M,0.0,M,,*69 $GPRMC,000000.000,V,5201.871,N,01642.518,E,0.00,0.00,010070,,*17 $GPGGA,000000.000,5201.871,N,01642.518,E,0,00,0.0,0.000,M,0.0,M,,*68 $GPRMC,000000.000,V,5201.860,N,01642.544,E,0.00,0.00,010070,,*1E $GPGGA,000000.000,5201.860,N,01642.544,E,0,00,0.0,0.000,M,0.0,M,,*61 $GPRMC,000000.000,V,5201.837,N,01642.597,E,0.00,0.00,010070,,*12 $GPGGA,000000.000,5201.837,N,01642.597,E,0,00,0.0,0.000,M,0.0,M,,*6D $GPRMC,000000.000,V,5201.813,N,01642.610,E,0.00,0.00,010070,,*18 $GPGGA,000000.000,5201.813,N,01642.610,E,0,00,0.0,0.000,M,0.0,M,,*67 $GPRMC,000000.000,V,5201.751,N,01642.628,E,0.00,0.00,010070,,*1A $GPGGA,000000.000,5201.751,N,01642.628,E,0,00,0.0,0.000,M,0.0,M,,*65 $GPRMC,000000.000,V,5201.685,N,01642.643,E,0.00,0.00,010070,,*1F $GPGGA,000000.000,5201.685,N,01642.643,E,0,00,0.0,0.000,M,0.0,M,,*60 $GPRMC,000000.000,V,5201.573,N,01642.861,E,0.00,0.00,010070,,*1B $GPGGA,000000.000,5201.573,N,01642.861,E,0,00,0.0,0.000,M,0.0,M,,*64 $GPRMC,000000.000,V,5201.442,N,01643.125,E,0.00,0.00,010070,,*10 $GPGGA,000000.000,5201.442,N,01643.125,E,0,00,0.0,0.000,M,0.0,M,,*6F $GPRMC,000000.000,V,5201.345,N,01643.318,E,0.00,0.00,010070,,*1C $GPGGA,000000.000,5201.345,N,01643.318,E,0,00,0.0,0.000,M,0.0,M,,*63 $GPRMC,000000.000,V,5201.214,N,01643.566,E,0.00,0.00,010070,,*16 $GPGGA,000000.000,5201.214,N,01643.566,E,0,00,0.0,0.000,M,0.0,M,,*69 $GPRMC,000000.000,V,5201.120,N,01643.754,E,0.00,0.00,010070,,*11 $GPGGA,000000.000,5201.120,N,01643.754,E,0,00,0.0,0.000,M,0.0,M,,*6E $GPRMC,000000.000,V,5201.085,N,01643.803,E,0.00,0.00,010070,,*12 $GPGGA,000000.000,5201.085,N,01643.803,E,0,00,0.0,0.000,M,0.0,M,,*6D $GPRMC,000000.000,V,5201.048,N,01643.839,E,0.00,0.00,010070,,*1A $GPGGA,000000.000,5201.048,N,01643.839,E,0,00,0.0,0.000,M,0.0,M,,*65 $GPRMC,000000.000,V,5201.036,N,01643.853,E,0.00,0.00,010070,,*1F $GPGGA,000000.000,5201.036,N,01643.853,E,0,00,0.0,0.000,M,0.0,M,,*60 $GPRMC,000000.000,V,5200.541,N,01644.791,E,0.00,0.00,010070,,*1D $GPGGA,000000.000,5200.541,N,01644.791,E,0,00,0.0,0.000,M,0.0,M,,*62 $GPRMC,000000.000,V,5200.323,N,01645.198,E,0.00,0.00,010070,,*11 $GPGGA,000000.000,5200.323,N,01645.198,E,0,00,0.0,0.000,M,0.0,M,,*6E $GPRMC,000000.000,V,5200.012,N,01645.669,E,0.00,0.00,010070,,*19 $GPGGA,000000.000,5200.012,N,01645.669,E,0,00,0.0,0.000,M,0.0,M,,*66 $GPRMC,000000.000,V,5159.911,N,01645.975,E,0.00,0.00,010070,,*1E $GPGGA,000000.000,5159.911,N,01645.975,E,0,00,0.0,0.000,M,0.0,M,,*61 $GPRMC,000000.000,V,5159.815,N,01646.264,E,0.00,0.00,010070,,*13 $GPGGA,000000.000,5159.815,N,01646.264,E,0,00,0.0,0.000,M,0.0,M,,*6C $GPRMC,000000.000,V,5159.752,N,01646.452,E,0.00,0.00,010070,,*1C $GPGGA,000000.000,5159.752,N,01646.452,E,0,00,0.0,0.000,M,0.0,M,,*63 $GPRMC,000000.000,V,5159.725,N,01646.506,E,0.00,0.00,010070,,*1C $GPGGA,000000.000,5159.725,N,01646.506,E,0,00,0.0,0.000,M,0.0,M,,*63 $GPRMC,000000.000,V,5159.696,N,01646.610,E,0.00,0.00,010070,,*11 $GPGGA,000000.000,5159.696,N,01646.610,E,0,00,0.0,0.000,M,0.0,M,,*6E $GPRMC,000000.000,V,5159.687,N,01646.678,E,0.00,0.00,010070,,*1F $GPGGA,000000.000,5159.687,N,01646.678,E,0,00,0.0,0.000,M,0.0,M,,*60 $GPRMC,000000.000,V,5159.663,N,01646.688,E,0.00,0.00,010070,,*1A $GPGGA,000000.000,5159.663,N,01646.688,E,0,00,0.0,0.000,M,0.0,M,,*65 $GPRMC,000000.000,V,5159.586,N,01646.683,E,0.00,0.00,010070,,*19 $GPGGA,000000.000,5159.586,N,01646.683,E,0,00,0.0,0.000,M,0.0,M,,*66 $GPRMC,000000.000,V,5159.525,N,01646.705,E,0.00,0.00,010070,,*1F $GPGGA,000000.000,5159.525,N,01646.705,E,0,00,0.0,0.000,M,0.0,M,,*60 $GPRMC,000000.000,V,5159.490,N,01646.719,E,0.00,0.00,010070,,*1D $GPGGA,000000.000,5159.490,N,01646.719,E,0,00,0.0,0.000,M,0.0,M,,*62 $GPRMC,000000.000,V,5159.475,N,01646.712,E,0.00,0.00,010070,,*1D $GPGGA,000000.000,5159.475,N,01646.712,E,0,00,0.0,0.000,M,0.0,M,,*62 $GPRMC,000000.000,V,5159.464,N,01646.694,E,0.00,0.00,010070,,*12 $GPGGA,000000.000,5159.464,N,01646.694,E,0,00,0.0,0.000,M,0.0,M,,*6D $GPRMC,000000.000,V,5159.413,N,01646.582,E,0.00,0.00,010070,,*16 $GPGGA,000000.000,5159.413,N,01646.582,E,0,00,0.0,0.000,M,0.0,M,,*69 $GPRMC,000000.000,V,5159.350,N,01646.448,E,0.00,0.00,010070,,*11 $GPGGA,000000.000,5159.350,N,01646.448,E,0,00,0.0,0.000,M,0.0,M,,*6E $GPRMC,000000.000,V,5159.277,N,01646.351,E,0.00,0.00,010070,,*1A $GPGGA,000000.000,5159.277,N,01646.351,E,0,00,0.0,0.000,M,0.0,M,,*65 $GPRMC,000000.000,V,5159.258,N,01646.333,E,0.00,0.00,010070,,*13 $GPGGA,000000.000,5159.258,N,01646.333,E,0,00,0.0,0.000,M,0.0,M,,*6C $GPRMC,000000.000,V,5159.245,N,01646.330,E,0.00,0.00,010070,,*1C $GPGGA,000000.000,5159.245,N,01646.330,E,0,00,0.0,0.000,M,0.0,M,,*63 $GPRMC,000000.000,V,5159.226,N,01646.350,E,0.00,0.00,010070,,*1F $GPGGA,000000.000,5159.226,N,01646.350,E,0,00,0.0,0.000,M,0.0,M,,*60 $GPRMC,000000.000,V,5159.210,N,01646.392,E,0.00,0.00,010070,,*14 $GPGGA,000000.000,5159.210,N,01646.392,E,0,00,0.0,0.000,M,0.0,M,,*6B $GPRMC,000000.000,V,5159.152,N,01646.508,E,0.00,0.00,010070,,*14 $GPGGA,000000.000,5159.152,N,01646.508,E,0,00,0.0,0.000,M,0.0,M,,*6B $GPRMC,000000.000,V,5158.904,N,01646.954,E,0.00,0.00,010070,,*1B $GPGGA,000000.000,5158.904,N,01646.954,E,0,00,0.0,0.000,M,0.0,M,,*64 $GPRMC,000000.000,V,5158.898,N,01647.028,E,0.00,0.00,010070,,*1C $GPGGA,000000.000,5158.898,N,01647.028,E,0,00,0.0,0.000,M,0.0,M,,*63 $GPRMC,000000.000,V,5158.888,N,01647.111,E,0.00,0.00,010070,,*16 $GPGGA,000000.000,5158.888,N,01647.111,E,0,00,0.0,0.000,M,0.0,M,,*69 $GPRMC,000000.000,V,5158.876,N,01647.125,E,0.00,0.00,010070,,*10 $GPGGA,000000.000,5158.876,N,01647.125,E,0,00,0.0,0.000,M,0.0,M,,*6F $GPRMC,000000.000,V,5158.844,N,01647.153,E,0.00,0.00,010070,,*10 $GPGGA,000000.000,5158.844,N,01647.153,E,0,00,0.0,0.000,M,0.0,M,,*6F $GPRMC,000000.000,V,5158.469,N,01647.422,E,0.00,0.00,010070,,*10 $GPGGA,000000.000,5158.469,N,01647.422,E,0,00,0.0,0.000,M,0.0,M,,*6F $GPRMC,000000.000,V,5158.458,N,01647.617,E,0.00,0.00,010070,,*16 $GPGGA,000000.000,5158.458,N,01647.617,E,0,00,0.0,0.000,M,0.0,M,,*69 $GPRMC,000000.000,V,5157.908,N,01647.766,E,0.00,0.00,010070,,*16 $GPGGA,000000.000,5157.908,N,01647.766,E,0,00,0.0,0.000,M,0.0,M,,*69 $GPRMC,000000.000,V,5157.898,N,01647.814,E,0.00,0.00,010070,,*14 $GPGGA,000000.000,5157.898,N,01647.814,E,0,00,0.0,0.000,M,0.0,M,,*6B $GPRMC,000000.000,V,5157.882,N,01647.861,E,0.00,0.00,010070,,*1D $GPGGA,000000.000,5157.882,N,01647.861,E,0,00,0.0,0.000,M,0.0,M,,*62 $GPRMC,000000.000,V,5157.858,N,01647.906,E,0.00,0.00,010070,,*1A $GPGGA,000000.000,5157.858,N,01647.906,E,0,00,0.0,0.000,M,0.0,M,,*65 $GPRMC,000000.000,V,5157.833,N,01647.945,E,0.00,0.00,010070,,*10 $GPGGA,000000.000,5157.833,N,01647.945,E,0,00,0.0,0.000,M,0.0,M,,*6F $GPRMC,000000.000,V,5157.813,N,01647.971,E,0.00,0.00,010070,,*15 $GPGGA,000000.000,5157.813,N,01647.971,E,0,00,0.0,0.000,M,0.0,M,,*6A $GPRMC,000000.000,V,5157.791,N,01647.996,E,0.00,0.00,010070,,*19 $GPGGA,000000.000,5157.791,N,01647.996,E,0,00,0.0,0.000,M,0.0,M,,*66 $GPRMC,000000.000,V,5157.771,N,01648.024,E,0.00,0.00,010070,,*18 $GPGGA,000000.000,5157.771,N,01648.024,E,0,00,0.0,0.000,M,0.0,M,,*67 $GPRMC,000000.000,V,5157.751,N,01648.056,E,0.00,0.00,010070,,*1F $GPGGA,000000.000,5157.751,N,01648.056,E,0,00,0.0,0.000,M,0.0,M,,*60 $GPRMC,000000.000,V,5157.737,N,01648.081,E,0.00,0.00,010070,,*15 $GPGGA,000000.000,5157.737,N,01648.081,E,0,00,0.0,0.000,M,0.0,M,,*6A $GPRMC,000000.000,V,5157.718,N,01648.133,E,0.00,0.00,010070,,*10 $GPGGA,000000.000,5157.718,N,01648.133,E,0,00,0.0,0.000,M,0.0,M,,*6F $GPRMC,000000.000,V,5157.701,N,01648.192,E,0.00,0.00,010070,,*13 $GPGGA,000000.000,5157.701,N,01648.192,E,0,00,0.0,0.000,M,0.0,M,,*6C $GPRMC,000000.000,V,5157.687,N,01648.231,E,0.00,0.00,010070,,*16 $GPGGA,000000.000,5157.687,N,01648.231,E,0,00,0.0,0.000,M,0.0,M,,*69 $GPRMC,000000.000,V,5157.667,N,01648.293,E,0.00,0.00,010070,,*10 $GPGGA,000000.000,5157.667,N,01648.293,E,0,00,0.0,0.000,M,0.0,M,,*6F $GPRMC,000000.000,V,5157.642,N,01648.336,E,0.00,0.00,010070,,*19 $GPGGA,000000.000,5157.642,N,01648.336,E,0,00,0.0,0.000,M,0.0,M,,*66 $GPRMC,000000.000,V,5157.618,N,01648.387,E,0.00,0.00,010070,,*1C $GPGGA,000000.000,5157.618,N,01648.387,E,0,00,0.0,0.000,M,0.0,M,,*63 $GPRMC,000000.000,V,5157.591,N,01648.426,E,0.00,0.00,010070,,*12 $GPGGA,000000.000,5157.591,N,01648.426,E,0,00,0.0,0.000,M,0.0,M,,*6D $GPRMC,000000.000,V,5157.556,N,01648.474,E,0.00,0.00,010070,,*1E $GPGGA,000000.000,5157.556,N,01648.474,E,0,00,0.0,0.000,M,0.0,M,,*61 $GPRMC,000000.000,V,5157.497,N,01648.545,E,0.00,0.00,010070,,*11 $GPGGA,000000.000,5157.497,N,01648.545,E,0,00,0.0,0.000,M,0.0,M,,*6E $GPRMC,000000.000,V,5157.456,N,01648.595,E,0.00,0.00,010070,,*11 $GPGGA,000000.000,5157.456,N,01648.595,E,0,00,0.0,0.000,M,0.0,M,,*6E $GPRMC,000000.000,V,5157.442,N,01648.605,E,0.00,0.00,010070,,*1E $GPGGA,000000.000,5157.442,N,01648.605,E,0,00,0.0,0.000,M,0.0,M,,*61 $GPRMC,000000.000,V,5157.448,N,01648.626,E,0.00,0.00,010070,,*15 $GPGGA,000000.000,5157.448,N,01648.626,E,0,00,0.0,0.000,M,0.0,M,,*6A $GPRMC,000000.000,V,5157.484,N,01648.693,E,0.00,0.00,010070,,*1B $GPGGA,000000.000,5157.484,N,01648.693,E,0,00,0.0,0.000,M,0.0,M,,*64 $GPRMC,000000.000,V,5157.526,N,01648.775,E,0.00,0.00,010070,,*1B $GPGGA,000000.000,5157.526,N,01648.775,E,0,00,0.0,0.000,M,0.0,M,,*64 $GPRMC,000000.000,V,5157.591,N,01648.891,E,0.00,0.00,010070,,*12 $GPGGA,000000.000,5157.591,N,01648.891,E,0,00,0.0,0.000,M,0.0,M,,*6D $GPRMC,000000.000,V,5157.705,N,01649.102,E,0.00,0.00,010070,,*1F $GPGGA,000000.000,5157.705,N,01649.102,E,0,00,0.0,0.000,M,0.0,M,,*60 $GPRMC,000000.000,V,5157.718,N,01649.109,E,0.00,0.00,010070,,*18 $GPGGA,000000.000,5157.718,N,01649.109,E,0,00,0.0,0.000,M,0.0,M,,*67